createdAt,value
2022-07-25T00:00:08.842Z,26.60
2022-07-25T00:02:37.626Z,26.70
2022-07-25T00:05:05.691Z,26.80
2022-07-25T00:07:34.200Z,26.80
2022-07-25T00:10:02.012Z,26.90
2022-07-25T00:12:29.927Z,26.90
2022-07-25T00:14:57.688Z,27.00
2022-07-25T00:17:25.516Z,27.10
2022-07-25T00:19:53.853Z,27.20
2022-07-25T00:22:21.528Z,27.20
2022-07-25T00:24:49.519Z,27.20
2022-07-25T00:27:17.375Z,27.30
2022-07-25T00:29:45.961Z,27.40
2022-07-25T00:32:13.757Z,27.50
2022-07-25T00:34:41.520Z,27.50
2022-07-25T00:37:09.255Z,27.60
2022-07-25T00:39:37.295Z,27.70
2022-07-25T00:42:05.320Z,27.80
2022-07-25T00:44:33.729Z,27.80
2022-07-25T00:47:02.555Z,27.90
2022-07-25T00:49:30.343Z,27.90
2022-07-25T00:51:59.686Z,28.00
2022-07-25T00:54:29.486Z,28.00
2022-07-25T00:56:57.250Z,28.10
2022-07-25T00:59:25.065Z,28.20
2022-07-25T01:01:52.810Z,28.30
2022-07-25T01:04:20.791Z,28.40
2022-07-25T01:06:48.671Z,28.50
2022-07-25T01:09:17.083Z,28.60
2022-07-25T01:11:44.862Z,28.70
2022-07-25T01:14:13.701Z,28.70
2022-07-25T01:16:41.689Z,28.80
2022-07-25T01:19:10.068Z,28.80
2022-07-25T01:21:38.720Z,28.90
2022-07-25T01:24:07.045Z,28.90
2022-07-25T01:26:34.934Z,29.00
2022-07-25T01:29:02.666Z,29.10
2022-07-25T01:31:30.506Z,29.20
2022-07-25T01:33:58.372Z,29.20
2022-07-25T01:36:26.147Z,29.30
2022-07-25T01:38:54.741Z,29.40
2022-07-25T01:41:23.005Z,29.50
2022-07-25T01:43:53.928Z,29.60
2022-07-25T01:46:21.822Z,29.70
2022-07-25T01:48:58.141Z,29.70
2022-07-25T01:51:39.128Z,29.80
2022-07-25T01:54:10.591Z,29.80
2022-07-25T01:56:39.751Z,29.90
2022-07-25T01:59:08.574Z,30.00
2022-07-25T02:01:37.402Z,30.00
2022-07-25T02:04:06.546Z,30.10
2022-07-25T02:06:35.748Z,30.10
2022-07-25T02:09:04.056Z,30.20
2022-07-25T02:11:31.737Z,30.20
2022-07-25T02:13:59.661Z,30.30
2022-07-25T02:16:28.815Z,30.40
2022-07-25T02:18:57.461Z,30.40
2022-07-25T02:21:26.761Z,30.50
2022-07-25T02:23:55.549Z,30.60
2022-07-25T02:26:23.380Z,30.70
2022-07-25T02:28:51.502Z,30.70
2022-07-25T02:31:19.365Z,30.80
2022-07-25T02:33:47.226Z,30.90
2022-07-25T02:36:15.133Z,31.00
2022-07-25T02:38:44.500Z,31.20
2022-07-25T02:41:12.676Z,31.00
2022-07-25T02:43:40.582Z,31.00
2022-07-25T02:46:08.918Z,31.20
2022-07-25T02:48:36.789Z,31.10
2022-07-25T02:51:04.778Z,31.20
2022-07-25T02:53:54.741Z,31.20
2022-07-25T02:56:21.226Z,31.30
2022-07-25T02:58:49.296Z,31.30
2022-07-25T03:01:17.989Z,31.30
2022-07-25T03:03:46.110Z,31.30
2022-07-25T03:06:13.967Z,31.30
2022-07-25T03:08:41.735Z,31.40
2022-07-25T03:11:09.646Z,31.40
2022-07-25T03:13:37.413Z,31.40
2022-07-25T03:16:05.356Z,31.40
2022-07-25T03:18:33.156Z,31.50
2022-07-25T03:21:02.096Z,31.40
2022-07-25T03:23:31.305Z,31.50
2022-07-25T03:25:59.188Z,31.40
2022-07-25T03:28:27.960Z,31.40
2022-07-25T03:30:55.882Z,31.40
2022-07-25T03:33:24.086Z,31.40
2022-07-25T03:35:51.858Z,31.40
2022-07-25T03:38:19.674Z,31.40
2022-07-25T03:40:47.544Z,31.40
2022-07-25T03:43:15.303Z,31.30
2022-07-25T03:45:44.823Z,31.30
2022-07-25T03:48:13.721Z,31.20
2022-07-25T03:53:17.627Z,31.10
2022-07-25T03:55:51.512Z,31.00
2022-07-25T03:58:19.813Z,31.00
2022-07-25T04:00:50.776Z,30.90
2022-07-25T04:03:19.390Z,30.90
2022-07-25T04:05:47.766Z,30.90
2022-07-25T04:08:17.050Z,30.90
2022-07-25T04:10:45.149Z,30.90
2022-07-25T04:13:13.453Z,30.90
2022-07-25T04:15:44.428Z,30.90
2022-07-25T04:18:13.182Z,31.00
2022-07-25T04:23:23.138Z,31.20
2022-07-25T04:25:51.535Z,31.30
2022-07-25T04:28:20.189Z,31.50
2022-07-25T04:30:48.385Z,31.60
2022-07-25T04:33:16.205Z,31.80
2022-07-25T04:35:44.157Z,31.90
2022-07-25T04:38:12.439Z,32.00
2022-07-25T04:40:40.629Z,32.00
2022-07-25T04:43:09.171Z,32.10
2022-07-25T04:45:37.403Z,32.10
2022-07-25T04:48:05.937Z,32.10
2022-07-25T04:50:34.066Z,32.10
2022-07-25T04:53:02.690Z,32.10
2022-07-25T04:55:35.305Z,32.10
2022-07-25T04:58:05.419Z,32.30
2022-07-25T05:00:37.298Z,32.40
2022-07-25T05:03:05.172Z,32.50
2022-07-25T05:05:36.951Z,32.60
2022-07-25T05:08:06.165Z,32.70
2022-07-25T05:10:35.972Z,32.70
2022-07-25T05:13:08.000Z,32.80
2022-07-25T05:15:39.768Z,32.90
2022-07-25T05:20:37.035Z,32.90
2022-07-25T05:25:35.723Z,33.10
2022-07-25T05:28:04.873Z,33.20
2022-07-25T05:30:36.508Z,33.30
2022-07-25T05:33:09.322Z,33.30
2022-07-25T05:35:37.587Z,33.30
2022-07-25T05:38:06.111Z,33.30
2022-07-25T05:40:34.403Z,33.30
2022-07-25T05:43:05.983Z,33.40
2022-07-25T05:45:34.039Z,33.50
2022-07-25T05:48:02.106Z,33.60
2022-07-25T05:50:31.347Z,33.60
2022-07-25T05:52:59.444Z,33.60
2022-07-25T05:55:27.633Z,33.60
2022-07-25T05:57:56.514Z,33.70
2022-07-25T06:00:24.849Z,33.70
2022-07-25T06:02:53.220Z,33.70
2022-07-25T06:05:23.976Z,33.70
2022-07-25T06:07:52.937Z,33.70
2022-07-25T06:10:21.909Z,33.60
2022-07-25T06:12:50.016Z,33.60
2022-07-25T06:15:22.889Z,33.70
2022-07-25T06:17:55.809Z,33.80
2022-07-25T06:20:24.046Z,33.80
2022-07-25T06:22:54.496Z,33.80
2022-07-25T06:25:22.470Z,33.80
2022-07-25T06:27:56.275Z,33.80
2022-07-25T06:30:27.841Z,33.80
2022-07-25T06:32:56.649Z,33.80
2022-07-25T06:35:26.176Z,33.80
2022-07-25T06:37:58.331Z,33.80
2022-07-25T06:40:28.115Z,33.90
2022-07-25T06:42:56.090Z,33.80
2022-07-25T06:45:25.398Z,33.90
2022-07-25T06:47:55.424Z,34.00
2022-07-25T06:50:26.497Z,34.10
2022-07-25T06:52:56.159Z,34.10
2022-07-25T06:55:24.189Z,34.20
2022-07-25T06:57:52.002Z,34.20
2022-07-25T07:00:20.182Z,34.20
2022-07-25T07:02:58.984Z,34.30
2022-07-25T07:05:27.841Z,34.30
2022-07-25T07:07:56.780Z,34.30
2022-07-25T07:10:24.591Z,34.20
2022-07-25T07:13:02.970Z,34.10
2022-07-25T07:15:30.954Z,34.10
2022-07-25T07:18:04.872Z,34.10
2022-07-25T07:20:33.005Z,34.00
2022-07-25T07:23:04.801Z,34.00
2022-07-25T07:25:34.211Z,34.10
2022-07-25T07:28:02.065Z,34.10
2022-07-25T07:30:58.557Z,34.10
2022-07-25T07:33:23.863Z,34.10
2022-07-25T07:35:52.908Z,34.00
2022-07-25T07:38:22.150Z,33.90
2022-07-25T07:40:49.990Z,33.80
2022-07-25T07:43:18.305Z,33.80
2022-07-25T07:45:46.667Z,33.70
2022-07-25T07:48:17.034Z,33.60
2022-07-25T07:50:44.909Z,33.60
2022-07-25T07:53:12.912Z,33.60
2022-07-25T07:55:49.069Z,33.70
2022-07-25T07:58:22.978Z,33.70
2022-07-25T08:00:52.410Z,33.80
2022-07-25T08:03:24.511Z,33.80
2022-07-25T08:05:52.426Z,34.00
2022-07-25T08:08:20.762Z,34.00
2022-07-25T08:10:49.630Z,34.10
2022-07-25T08:13:25.241Z,34.10
2022-07-25T08:15:56.028Z,34.10
2022-07-25T08:18:24.067Z,34.10
2022-07-25T08:20:54.573Z,34.00
2022-07-25T08:23:25.753Z,34.00
2022-07-25T08:25:54.836Z,34.00
2022-07-25T08:28:22.635Z,33.90
2022-07-25T08:30:51.168Z,33.90
2022-07-25T08:33:19.128Z,33.90
2022-07-25T08:35:49.463Z,33.90
2022-07-25T08:38:18.749Z,34.00
2022-07-25T08:40:46.858Z,34.00
2022-07-25T08:43:16.079Z,34.10
2022-07-25T08:45:54.821Z,34.10
2022-07-25T08:48:24.931Z,34.10
2022-07-25T08:50:53.555Z,34.10
2022-07-25T08:53:37.427Z,34.10
2022-07-25T08:56:15.964Z,34.00
2022-07-25T08:58:47.076Z,34.00
2022-07-25T09:01:17.352Z,33.90
2022-07-25T09:03:48.366Z,33.70
2022-07-25T09:06:20.609Z,33.70
2022-07-25T09:09:09.019Z,33.70
2022-07-25T09:11:37.915Z,33.70
2022-07-25T09:14:08.291Z,33.70
2022-07-25T09:16:44.727Z,33.70
2022-07-25T09:19:20.277Z,33.80
2022-07-25T09:22:02.074Z,33.90
2022-07-25T09:24:30.869Z,33.90
2022-07-25T09:27:00.299Z,33.90
2022-07-25T09:29:32.346Z,34.00
2022-07-25T09:32:01.044Z,33.90
2022-07-25T09:34:39.513Z,34.00
2022-07-25T09:37:09.786Z,34.00
2022-07-25T09:39:45.911Z,34.00
2022-07-25T09:42:19.361Z,34.00
2022-07-25T09:45:06.988Z,34.00
2022-07-25T09:47:37.374Z,34.00
2022-07-25T09:50:05.902Z,34.00
2022-07-25T09:52:34.440Z,33.90
2022-07-25T09:55:05.430Z,33.90
2022-07-25T09:57:33.259Z,33.80
2022-07-25T10:00:01.679Z,33.70
2022-07-25T10:02:41.777Z,33.70
2022-07-25T10:05:29.178Z,33.60
2022-07-25T10:07:57.566Z,33.50
2022-07-25T10:10:26.887Z,33.50
2022-07-25T10:13:16.626Z,33.40
2022-07-25T10:15:53.474Z,33.30
2022-07-25T10:18:26.031Z,33.30
2022-07-25T10:21:24.442Z,33.30
2022-07-25T10:24:05.348Z,33.30
2022-07-25T10:26:34.076Z,33.30
2022-07-25T10:29:05.660Z,33.30
2022-07-25T10:31:40.199Z,33.30
2022-07-25T10:34:09.751Z,33.30
2022-07-25T10:36:57.937Z,33.20
2022-07-25T10:39:25.793Z,33.20
2022-07-25T10:41:57.231Z,33.20
2022-07-25T10:44:31.467Z,33.20
2022-07-25T10:47:08.008Z,33.20
2022-07-25T10:50:13.466Z,33.10
2022-07-25T10:52:32.177Z,33.10
2022-07-25T10:55:02.100Z,33.00
2022-07-25T10:57:32.278Z,33.00
2022-07-25T11:00:08.936Z,33.00
2022-07-25T11:02:40.778Z,32.90
2022-07-25T11:05:08.923Z,32.80
2022-07-25T11:08:04.465Z,32.80
2022-07-25T11:10:38.863Z,32.80
2022-07-25T11:13:11.172Z,32.70
2022-07-25T11:18:31.227Z,32.50
2022-07-25T11:21:08.231Z,32.50
2022-07-25T11:23:43.482Z,32.50
2022-07-25T11:26:12.903Z,32.40
2022-07-25T11:28:45.425Z,32.40
2022-07-25T11:31:22.008Z,32.40
2022-07-25T11:33:54.082Z,32.30
2022-07-25T11:36:23.223Z,32.30
2022-07-25T11:38:52.672Z,32.20
2022-07-25T11:41:29.081Z,32.20
2022-07-25T11:43:58.521Z,32.20
2022-07-25T11:46:26.449Z,32.20
2022-07-25T11:49:05.140Z,32.20
2022-07-25T11:51:37.715Z,32.10
2022-07-25T11:54:13.910Z,32.10
2022-07-25T11:56:43.301Z,32.10
2022-07-25T11:59:12.474Z,32.10
2022-07-25T12:01:42.621Z,32.00
2022-07-25T12:04:17.985Z,32.00
2022-07-25T12:06:47.662Z,31.90
2022-07-25T12:09:19.802Z,31.90
2022-07-25T12:11:48.344Z,31.90
2022-07-25T12:14:16.512Z,31.80
2022-07-25T12:16:44.407Z,31.80
2022-07-25T12:19:19.457Z,31.70
2022-07-25T12:21:47.396Z,31.70
2022-07-25T12:24:15.098Z,31.70
2022-07-25T12:26:44.636Z,31.70
2022-07-25T12:29:12.329Z,31.60
2022-07-25T12:31:40.316Z,31.50
2022-07-25T12:34:08.412Z,31.40
2022-07-25T12:36:42.337Z,31.40
2022-07-25T12:39:11.283Z,31.30
2022-07-25T12:41:41.281Z,31.20
2022-07-25T12:44:09.063Z,31.10
2022-07-25T12:46:38.788Z,31.00
2022-07-25T12:49:07.054Z,30.90
2022-07-25T12:51:34.941Z,30.90
2022-07-25T12:54:03.104Z,30.80
2022-07-25T12:56:31.521Z,30.80
2022-07-25T12:58:59.295Z,30.70
2022-07-25T13:01:28.079Z,30.70
2022-07-25T13:03:56.709Z,30.60
2022-07-25T13:06:24.443Z,30.50
2022-07-25T13:08:52.324Z,30.50
2022-07-25T13:11:20.129Z,30.40
2022-07-25T13:13:48.138Z,30.40
2022-07-25T13:16:16.058Z,30.40
2022-07-25T13:18:45.584Z,30.30
2022-07-25T13:21:13.681Z,30.30
2022-07-25T13:23:42.464Z,30.30
2022-07-25T13:26:11.298Z,30.30
2022-07-25T13:28:39.302Z,30.20
2022-07-25T13:31:08.402Z,30.30
2022-07-25T13:33:36.125Z,30.30
2022-07-25T13:36:04.950Z,30.30
2022-07-25T13:38:35.182Z,30.20
2022-07-25T13:41:04.026Z,30.20
2022-07-25T13:43:31.742Z,30.30
2022-07-25T13:45:59.545Z,30.30
2022-07-25T13:48:29.875Z,30.30
2022-07-25T13:50:59.547Z,30.30
2022-07-25T13:53:30.174Z,30.30
2022-07-25T13:55:59.450Z,30.30
2022-07-25T13:58:27.646Z,30.20
2022-07-25T14:00:55.905Z,30.20
2022-07-25T14:03:23.656Z,30.20
2022-07-25T14:05:52.411Z,30.20
2022-07-25T14:08:20.656Z,30.20
2022-07-25T14:10:49.292Z,30.10
2022-07-25T14:13:17.839Z,30.10
2022-07-25T14:15:46.703Z,30.00
2022-07-25T14:18:15.306Z,30.10
2022-07-25T14:20:43.298Z,30.00
2022-07-25T14:23:11.920Z,30.00
2022-07-25T14:25:39.971Z,30.00
2022-07-25T14:28:07.773Z,30.00
2022-07-25T14:30:35.885Z,30.00
2022-07-25T14:33:03.602Z,29.90
2022-07-25T14:35:32.743Z,29.90
2022-07-25T14:38:00.954Z,29.90
2022-07-25T14:40:28.755Z,29.90
2022-07-25T14:42:56.467Z,29.90
2022-07-25T14:45:24.476Z,29.90
2022-07-25T14:47:53.238Z,29.90
2022-07-25T14:50:21.495Z,29.90
2022-07-25T14:52:49.313Z,29.80
2022-07-25T14:55:17.080Z,29.80
2022-07-25T14:57:45.216Z,29.80
2022-07-25T15:00:14.130Z,29.80
2022-07-25T15:02:41.783Z,29.80
2022-07-25T15:05:10.002Z,29.70
2022-07-25T15:07:38.700Z,29.70
2022-07-25T15:10:07.178Z,29.60
2022-07-25T15:12:35.569Z,29.60
2022-07-25T15:15:03.390Z,29.60
2022-07-25T15:17:31.090Z,29.60
2022-07-25T15:19:58.883Z,29.60
2022-07-25T15:22:27.454Z,29.60
2022-07-25T15:25:34.788Z,29.60
2022-07-25T15:27:43.660Z,29.50
2022-07-25T15:30:11.933Z,29.50
2022-07-25T15:32:40.573Z,29.50
2022-07-25T15:35:09.771Z,29.50
2022-07-25T15:37:40.728Z,29.40
2022-07-25T15:40:09.635Z,29.40
2022-07-25T15:42:38.530Z,29.30
2022-07-25T15:45:32.154Z,29.30
2022-07-25T15:47:57.818Z,29.20
2022-07-25T15:50:26.389Z,29.20
2022-07-25T15:52:54.997Z,29.20
2022-07-25T15:55:23.046Z,29.20
2022-07-25T15:57:52.962Z,29.30
2022-07-25T16:00:20.983Z,29.20
2022-07-25T16:02:49.262Z,29.30
2022-07-25T16:05:17.243Z,29.20
2022-07-25T16:07:45.777Z,29.20
2022-07-25T16:10:14.875Z,29.20
2022-07-25T16:12:42.620Z,29.20
2022-07-25T16:15:10.571Z,29.20
2022-07-25T16:17:39.136Z,29.20
2022-07-25T16:20:07.378Z,29.20
2022-07-25T16:22:35.145Z,29.20
2022-07-25T16:25:04.286Z,29.20
2022-07-25T16:27:32.095Z,29.10
2022-07-25T16:29:59.770Z,29.10
2022-07-25T16:32:27.572Z,29.10
2022-07-25T16:34:56.142Z,29.00
2022-07-25T16:37:26.934Z,29.00
2022-07-25T16:39:54.628Z,29.00
2022-07-25T16:42:23.180Z,28.90
2022-07-25T16:44:51.794Z,28.90
2022-07-25T16:47:20.347Z,28.80
2022-07-25T16:49:48.032Z,28.70
2022-07-25T16:52:15.880Z,28.80
2022-07-25T16:54:44.440Z,28.80
2022-07-25T16:57:12.178Z,28.70
2022-07-25T16:59:39.938Z,28.70
2022-07-25T17:02:07.729Z,28.70
2022-07-25T17:04:36.494Z,28.70
2022-07-25T17:07:04.607Z,28.70
2022-07-25T17:09:33.335Z,28.70
2022-07-25T17:12:01.999Z,28.60
2022-07-25T17:14:30.346Z,28.60
2022-07-25T17:16:58.260Z,28.50
2022-07-25T17:19:25.914Z,28.50
2022-07-25T17:21:53.611Z,28.50
2022-07-25T17:24:21.502Z,28.40
2022-07-25T17:26:50.110Z,28.40
2022-07-25T17:29:17.862Z,28.40
2022-07-25T17:31:46.508Z,28.30
2022-07-25T17:34:14.273Z,28.30
2022-07-25T17:36:42.781Z,28.30
2022-07-25T17:39:10.823Z,28.30
2022-07-25T17:41:39.584Z,28.30
2022-07-25T17:44:11.632Z,28.30
2022-07-25T17:46:40.033Z,28.30
2022-07-25T17:49:07.815Z,28.30
2022-07-25T17:51:36.489Z,28.30
2022-07-25T17:54:05.499Z,28.20
2022-07-25T17:56:34.465Z,28.20
2022-07-25T17:59:02.657Z,28.20
2022-07-25T18:01:30.508Z,28.20
2022-07-25T18:03:59.039Z,28.10
2022-07-25T18:06:29.864Z,28.20
2022-07-25T18:08:58.426Z,28.10
2022-07-25T18:11:27.008Z,28.10
2022-07-25T18:13:54.732Z,28.10
2022-07-25T18:16:23.541Z,28.10
2022-07-25T18:18:51.542Z,28.10
2022-07-25T18:21:19.393Z,28.10
2022-07-25T18:23:47.996Z,28.10
2022-07-25T18:26:15.758Z,28.10
2022-07-25T18:28:44.484Z,28.10
2022-07-25T18:31:13.210Z,28.10
2022-07-25T18:33:41.014Z,28.10
2022-07-25T18:36:09.766Z,28.10
2022-07-25T18:38:37.519Z,28.10
2022-07-25T18:41:29.554Z,28.10
2022-07-25T18:43:58.209Z,28.10
2022-07-25T18:46:27.012Z,28.10
2022-07-25T18:48:55.189Z,28.00
2022-07-25T18:51:23.919Z,28.00
2022-07-25T18:53:52.007Z,28.00
2022-07-25T18:56:19.819Z,28.10
2022-07-25T18:58:47.534Z,28.10
2022-07-25T19:01:16.196Z,28.10
2022-07-25T19:03:44.066Z,28.10
2022-07-25T19:06:11.904Z,28.10
2022-07-25T19:08:40.102Z,28.00
2022-07-25T19:11:09.869Z,28.00
2022-07-25T19:13:50.134Z,27.90
2022-07-25T19:16:21.473Z,27.90
2022-07-25T19:18:49.214Z,27.90
2022-07-25T19:21:17.251Z,27.90
2022-07-25T19:23:50.503Z,27.90
2022-07-25T19:26:20.438Z,27.90
2022-07-25T19:28:48.209Z,27.90
2022-07-25T19:31:17.038Z,27.90
2022-07-25T19:33:46.446Z,27.90
2022-07-25T19:36:15.417Z,27.80
2022-07-25T19:38:44.022Z,27.80
2022-07-25T19:41:11.693Z,27.80
2022-07-25T19:43:40.303Z,27.80
2022-07-25T19:46:08.035Z,27.80
2022-07-25T19:48:36.116Z,27.80
2022-07-25T19:51:03.907Z,27.70
2022-07-25T19:53:33.275Z,27.80
2022-07-25T19:56:02.253Z,27.80
2022-07-25T19:58:31.476Z,27.80
2022-07-25T20:01:00.857Z,27.80
2022-07-25T20:03:29.409Z,27.80
2022-07-25T20:05:57.925Z,27.80
2022-07-25T20:08:26.525Z,27.80
2022-07-25T20:10:54.461Z,27.80
2022-07-25T20:13:22.471Z,27.80
2022-07-25T20:15:50.215Z,27.80
2022-07-25T20:18:19.649Z,27.80
2022-07-25T20:20:47.710Z,27.80
2022-07-25T20:23:15.416Z,27.80
2022-07-25T20:25:43.307Z,27.80
2022-07-25T20:28:12.116Z,27.80
2022-07-25T20:30:40.950Z,27.80
2022-07-25T20:33:09.847Z,27.80
2022-07-25T20:35:38.654Z,27.70
2022-07-25T20:38:09.815Z,27.70
2022-07-25T20:40:48.053Z,27.70
2022-07-25T20:43:17.470Z,27.60
2022-07-25T20:45:45.773Z,27.60
2022-07-25T20:48:15.316Z,27.60
2022-07-25T20:50:43.376Z,27.60
2022-07-25T20:53:12.129Z,27.60
2022-07-25T20:55:39.915Z,27.50
2022-07-25T20:58:08.595Z,27.60
2022-07-25T21:00:36.375Z,27.50
2022-07-25T21:03:08.240Z,27.50
2022-07-25T21:05:37.981Z,27.50
2022-07-25T21:08:06.328Z,27.40
2022-07-25T21:10:37.074Z,27.50
2022-07-25T21:13:05.107Z,27.50
2022-07-25T21:15:33.187Z,27.50
2022-07-25T21:18:00.890Z,27.50
2022-07-25T21:20:29.684Z,27.60
2022-07-25T21:22:57.339Z,27.50
2022-07-25T21:25:25.131Z,27.60
2022-07-25T21:27:53.049Z,27.50
2022-07-25T21:30:20.787Z,27.50
2022-07-25T21:32:48.613Z,27.50
2022-07-25T21:35:16.409Z,27.50
2022-07-25T21:37:45.109Z,27.50
2022-07-25T21:40:12.931Z,27.50
2022-07-25T21:42:40.997Z,27.50
2022-07-25T21:45:08.829Z,27.40
2022-07-25T21:47:36.715Z,27.40
2022-07-25T21:50:24.499Z,27.40
2022-07-25T21:52:53.452Z,27.40
2022-07-25T21:55:21.772Z,27.40
2022-07-25T21:57:50.145Z,27.40
2022-07-25T22:00:18.273Z,27.40
2022-07-25T22:02:46.809Z,27.30
2022-07-25T22:05:15.774Z,27.30
2022-07-25T22:07:44.625Z,27.30
2022-07-25T22:10:16.173Z,27.30
2022-07-25T22:12:43.959Z,27.30
2022-07-25T22:15:13.037Z,27.30
2022-07-25T22:17:49.021Z,27.30
2022-07-25T22:20:19.463Z,27.30
2022-07-25T22:22:48.920Z,27.30
2022-07-25T22:25:17.115Z,27.30
2022-07-25T22:27:45.267Z,27.30
2022-07-25T22:30:18.698Z,27.30
2022-07-25T22:32:48.666Z,27.30
2022-07-25T22:35:17.748Z,27.20
2022-07-25T22:37:46.942Z,27.30
2022-07-25T22:40:15.151Z,27.30
2022-07-25T22:42:42.945Z,27.30
2022-07-25T22:45:11.325Z,27.20
2022-07-25T22:47:39.134Z,27.20
2022-07-25T22:50:07.255Z,27.20
2022-07-25T22:52:36.272Z,27.20
2022-07-25T22:55:04.394Z,27.20
2022-07-25T22:57:37.221Z,27.20
2022-07-25T23:00:10.420Z,27.20
2022-07-25T23:02:38.647Z,27.20
2022-07-25T23:05:07.613Z,27.30
2022-07-25T23:07:35.463Z,27.30
2022-07-25T23:10:03.514Z,27.30
2022-07-25T23:12:31.521Z,27.30
2022-07-25T23:14:59.196Z,27.30
2022-07-25T23:17:26.944Z,27.30
2022-07-25T23:19:56.253Z,27.30
2022-07-25T23:22:25.293Z,27.30
2022-07-25T23:24:55.047Z,27.40
2022-07-25T23:27:23.931Z,27.40
2022-07-25T23:29:51.703Z,27.40
2022-07-25T23:32:19.464Z,27.50
2022-07-25T23:34:48.425Z,27.50
2022-07-25T23:37:16.089Z,27.60
2022-07-25T23:39:43.786Z,27.60
2022-07-25T23:42:11.634Z,27.60
2022-07-25T23:44:39.356Z,27.70
2022-07-25T23:47:10.163Z,27.80
2022-07-25T23:49:38.605Z,27.90
2022-07-25T23:52:06.336Z,27.90
2022-07-25T23:54:35.253Z,27.90
2022-07-25T23:57:03.603Z,28.00
2022-07-25T23:59:31.393Z,28.10
